Terminal Aerodrome Forecast
Issued by NWS New Orleans/Baton Rouge, LA

Home | Current Version | Previous Version | Text Only | Print | Product List | Glossary On
Versions: 1 2 3 4 5 6 7 8 9 10 11 12 13 14 15 16 17 18 19 20
027
FTUS44 KLIX 202337
TAFBTR
TAF
KBTR 202337Z 2100/2124 12006KT P6SM FEW045
     FM211500 30004KT P6SM FEW020 SCT100 PROB30 2115/2118 4SM -TSRA
      BKN020CB BKN025 BKN030
     FM211800 VRB03KT P6SM SCT035 BKN100 PROB30 2118/2122 4SM -TSRA
      BKN035CB=

USA.gov is the U.S. government's official web portal to all federal, state and local government web resources and services.